sensor_id;sensor_type;location;lat;lon;timestamp;temperature;humidity
28729;DHT22;15894;50.452;30.446;2022-07-12T00:01:32;15.60;99.90
28729;DHT22;15894;50.452;30.446;2022-07-12T00:03:58;15.70;99.90
28729;DHT22;15894;50.452;30.446;2022-07-12T00:06:23;15.70;99.90
28729;DHT22;15894;50.452;30.446;2022-07-12T00:08:49;15.70;99.90
28729;DHT22;15894;50.452;30.446;2022-07-12T00:11:15;15.70;99.90
28729;DHT22;15894;50.452;30.446;2022-07-12T00:13:40;15.70;99.90
28729;DHT22;15894;50.452;30.446;2022-07-12T00:16:06;15.70;99.90
28729;DHT22;15894;50.452;30.446;2022-07-12T00:18:32;15.70;99.90
28729;DHT22;15894;50.452;30.446;2022-07-12T00:20:57;15.70;99.90
28729;DHT22;15894;50.452;30.446;2022-07-12T00:23:23;15.70;99.90
28729;DHT22;15894;50.452;30.446;2022-07-12T00:25:49;15.60;99.90
28729;DHT22;15894;50.452;30.446;2022-07-12T00:28:14;15.60;99.90
28729;DHT22;15894;50.452;30.446;2022-07-12T00:30:40;15.60;99.90
28729;DHT22;15894;50.452;30.446;2022-07-12T00:33:06;15.70;99.90
28729;DHT22;15894;50.452;30.446;2022-07-12T00:35:32;15.60;99.90
28729;DHT22;15894;50.452;30.446;2022-07-12T00:37:57;15.70;99.90
28729;DHT22;15894;50.452;30.446;2022-07-12T00:40:23;15.70;99.90
28729;DHT22;15894;50.452;30.446;2022-07-12T00:42:49;15.70;99.90
28729;DHT22;15894;50.452;30.446;2022-07-12T00:45:14;15.60;99.90
28729;DHT22;15894;50.452;30.446;2022-07-12T00:47:46;15.60;99.90
28729;DHT22;15894;50.452;30.446;2022-07-12T00:50:15;15.60;99.90
28729;DHT22;15894;50.452;30.446;2022-07-12T00:52:45;15.60;99.90
28729;DHT22;15894;50.452;30.446;2022-07-12T00:55:11;15.60;99.90
28729;DHT22;15894;50.452;30.446;2022-07-12T00:57:42;15.50;99.90
28729;DHT22;15894;50.452;30.446;2022-07-12T01:00:16;15.60;99.90
28729;DHT22;15894;50.452;30.446;2022-07-12T01:02:42;15.50;99.90
28729;DHT22;15894;50.452;30.446;2022-07-12T01:05:09;15.60;99.90
28729;DHT22;15894;50.452;30.446;2022-07-12T01:07:35;15.50;99.90
28729;DHT22;15894;50.452;30.446;2022-07-12T01:10:02;15.60;99.90
28729;DHT22;15894;50.452;30.446;2022-07-12T01:12:28;15.50;99.90
28729;DHT22;15894;50.452;30.446;2022-07-12T01:14:54;15.40;99.90
28729;DHT22;15894;50.452;30.446;2022-07-12T01:17:24;15.50;99.90
28729;DHT22;15894;50.452;30.446;2022-07-12T01:19:54;15.40;99.90
28729;DHT22;15894;50.452;30.446;2022-07-12T01:22:26;15.30;99.90
28729;DHT22;15894;50.452;30.446;2022-07-12T01:24:53;15.30;99.90
28729;DHT22;15894;50.452;30.446;2022-07-12T01:27:18;15.40;99.90
28729;DHT22;15894;50.452;30.446;2022-07-12T01:29:44;15.40;99.90
28729;DHT22;15894;50.452;30.446;2022-07-12T01:32:10;15.40;99.90
28729;DHT22;15894;50.452;30.446;2022-07-12T01:34:51;15.50;99.90
28729;DHT22;15894;50.452;30.446;2022-07-12T01:37:18;15.40;99.90
28729;DHT22;15894;50.452;30.446;2022-07-12T01:39:45;15.30;99.90
28729;DHT22;15894;50.452;30.446;2022-07-12T01:42:11;15.40;99.90
28729;DHT22;15894;50.452;30.446;2022-07-12T01:44:37;15.30;99.90
28729;DHT22;15894;50.452;30.446;2022-07-12T01:47:03;15.30;99.90
28729;DHT22;15894;50.452;30.446;2022-07-12T01:49:28;15.30;99.90
28729;DHT22;15894;50.452;30.446;2022-07-12T01:51:55;15.20;99.90
28729;DHT22;15894;50.452;30.446;2022-07-12T01:54:21;15.20;99.90
28729;DHT22;15894;50.452;30.446;2022-07-12T01:56:47;15.20;99.90
28729;DHT22;15894;50.452;30.446;2022-07-12T01:59:12;15.20;99.90
28729;DHT22;15894;50.452;30.446;2022-07-12T02:01:38;15.20;99.90
28729;DHT22;15894;50.452;30.446;2022-07-12T02:04:04;15.20;99.90
28729;DHT22;15894;50.452;30.446;2022-07-12T02:06:30;15.10;99.90
28729;DHT22;15894;50.452;30.446;2022-07-12T02:08:56;15.00;99.90
28729;DHT22;15894;50.452;30.446;2022-07-12T02:11:21;15.10;99.90
28729;DHT22;15894;50.452;30.446;2022-07-12T02:13:47;15.00;99.90
28729;DHT22;15894;50.452;30.446;2022-07-12T02:16:12;15.10;99.90
28729;DHT22;15894;50.452;30.446;2022-07-12T02:18:38;15.10;99.90
28729;DHT22;15894;50.452;30.446;2022-07-12T02:21:04;15.00;99.90
28729;DHT22;15894;50.452;30.446;2022-07-12T02:23:29;15.00;99.90
28729;DHT22;15894;50.452;30.446;2022-07-12T02:25:55;15.00;99.90
28729;DHT22;15894;50.452;30.446;2022-07-12T02:28:20;15.00;99.90
28729;DHT22;15894;50.452;30.446;2022-07-12T02:30:46;15.00;99.90
28729;DHT22;15894;50.452;30.446;2022-07-12T02:33:12;15.00;99.90
28729;DHT22;15894;50.452;30.446;2022-07-12T02:35:41;15.00;99.90
28729;DHT22;15894;50.452;30.446;2022-07-12T02:38:07;15.10;99.90
28729;DHT22;15894;50.452;30.446;2022-07-12T02:40:32;15.00;99.90
28729;DHT22;15894;50.452;30.446;2022-07-12T02:43:16;15.00;99.90
28729;DHT22;15894;50.452;30.446;2022-07-12T02:45:42;15.10;99.90
28729;DHT22;15894;50.452;30.446;2022-07-12T02:48:08;15.10;99.90
28729;DHT22;15894;50.452;30.446;2022-07-12T02:50:36;15.10;99.90
28729;DHT22;15894;50.452;30.446;2022-07-12T02:53:03;15.20;99.90
28729;DHT22;15894;50.452;30.446;2022-07-12T02:55:28;15.10;99.90
28729;DHT22;15894;50.452;30.446;2022-07-12T02:57:54;15.20;99.90
28729;DHT22;15894;50.452;30.446;2022-07-12T03:00:20;15.20;99.90
28729;DHT22;15894;50.452;30.446;2022-07-12T03:02:45;15.20;99.90
28729;DHT22;15894;50.452;30.446;2022-07-12T03:05:11;15.20;99.90
28729;DHT22;15894;50.452;30.446;2022-07-12T03:07:36;15.20;99.90
28729;DHT22;15894;50.452;30.446;2022-07-12T03:10:04;15.30;99.90
28729;DHT22;15894;50.452;30.446;2022-07-12T03:12:29;15.40;99.90
28729;DHT22;15894;50.452;30.446;2022-07-12T03:14:55;15.30;99.90
28729;DHT22;15894;50.452;30.446;2022-07-12T03:17:21;15.40;99.90
28729;DHT22;15894;50.452;30.446;2022-07-12T03:19:47;15.50;99.90
28729;DHT22;15894;50.452;30.446;2022-07-12T03:22:12;15.60;99.90
28729;DHT22;15894;50.452;30.446;2022-07-12T03:24:38;15.70;99.90
28729;DHT22;15894;50.452;30.446;2022-07-12T03:27:04;15.80;99.90
28729;DHT22;15894;50.452;30.446;2022-07-12T03:29:29;15.90;99.90
28729;DHT22;15894;50.452;30.446;2022-07-12T03:31:55;16.10;99.90
28729;DHT22;15894;50.452;30.446;2022-07-12T03:34:20;16.30;99.90
28729;DHT22;15894;50.452;30.446;2022-07-12T03:36:46;16.70;99.90
28729;DHT22;15894;50.452;30.446;2022-07-12T03:39:11;17.10;99.90
28729;DHT22;15894;50.452;30.446;2022-07-12T03:41:37;17.60;99.90
28729;DHT22;15894;50.452;30.446;2022-07-12T03:44:03;17.90;99.90
28729;DHT22;15894;50.452;30.446;2022-07-12T03:46:29;18.30;99.90
28729;DHT22;15894;50.452;30.446;2022-07-12T03:48:55;18.50;99.90
28729;DHT22;15894;50.452;30.446;2022-07-12T03:51:20;18.80;99.90
28729;DHT22;15894;50.452;30.446;2022-07-12T03:53:46;18.90;99.90
28729;DHT22;15894;50.452;30.446;2022-07-12T03:56:11;18.80;99.90
28729;DHT22;15894;50.452;30.446;2022-07-12T03:58:57;18.80;99.90
28729;DHT22;15894;50.452;30.446;2022-07-12T04:01:23;19.10;99.90
28729;DHT22;15894;50.452;30.446;2022-07-12T04:03:48;19.30;99.90
28729;DHT22;15894;50.452;30.446;2022-07-12T04:06:14;19.00;99.90
28729;DHT22;15894;50.452;30.446;2022-07-12T04:08:39;19.00;99.90
28729;DHT22;15894;50.452;30.446;2022-07-12T04:11:05;19.10;99.90
28729;DHT22;15894;50.452;30.446;2022-07-12T04:13:32;18.90;99.90
28729;DHT22;15894;50.452;30.446;2022-07-12T04:15:58;19.10;99.90
28729;DHT22;15894;50.452;30.446;2022-07-12T04:18:24;19.10;99.90
28729;DHT22;15894;50.452;30.446;2022-07-12T04:20:50;18.90;99.90
28729;DHT22;15894;50.452;30.446;2022-07-12T04:23:15;18.80;99.90
28729;DHT22;15894;50.452;30.446;2022-07-12T04:25:41;19.20;99.90
28729;DHT22;15894;50.452;30.446;2022-07-12T04:28:06;19.30;99.90
28729;DHT22;15894;50.452;30.446;2022-07-12T04:30:32;19.50;99.90
28729;DHT22;15894;50.452;30.446;2022-07-12T04:32:57;19.50;99.90
28729;DHT22;15894;50.452;30.446;2022-07-12T04:35:23;19.20;99.90
28729;DHT22;15894;50.452;30.446;2022-07-12T04:37:49;19.30;99.90
28729;DHT22;15894;50.452;30.446;2022-07-12T04:40:15;19.50;99.90
28729;DHT22;15894;50.452;30.446;2022-07-12T04:42:40;19.70;99.90
28729;DHT22;15894;50.452;30.446;2022-07-12T04:45:06;19.60;99.90
28729;DHT22;15894;50.452;30.446;2022-07-12T04:47:35;19.80;99.90
28729;DHT22;15894;50.452;30.446;2022-07-12T04:50:07;20.20;99.90
28729;DHT22;15894;50.452;30.446;2022-07-12T04:52:33;20.40;99.90
28729;DHT22;15894;50.452;30.446;2022-07-12T04:54:59;20.50;99.90
28729;DHT22;15894;50.452;30.446;2022-07-12T04:57:24;20.70;99.90
28729;DHT22;15894;50.452;30.446;2022-07-12T04:59:50;20.90;99.90
28729;DHT22;15894;50.452;30.446;2022-07-12T05:02:15;20.90;99.90
28729;DHT22;15894;50.452;30.446;2022-07-12T05:04:41;21.00;99.90
28729;DHT22;15894;50.452;30.446;2022-07-12T05:07:07;21.10;99.90
28729;DHT22;15894;50.452;30.446;2022-07-12T05:09:32;21.10;99.90
28729;DHT22;15894;50.452;30.446;2022-07-12T05:11:58;21.00;99.90
28729;DHT22;15894;50.452;30.446;2022-07-12T05:14:23;21.10;99.90
28729;DHT22;15894;50.452;30.446;2022-07-12T05:16:49;21.10;99.90
28729;DHT22;15894;50.452;30.446;2022-07-12T05:19:15;21.30;99.90
28729;DHT22;15894;50.452;30.446;2022-07-12T05:21:42;21.30;99.90
28729;DHT22;15894;50.452;30.446;2022-07-12T05:24:07;21.40;99.90
28729;DHT22;15894;50.452;30.446;2022-07-12T05:26:33;21.50;99.90
28729;DHT22;15894;50.452;30.446;2022-07-12T05:28:59;21.60;99.90
28729;DHT22;15894;50.452;30.446;2022-07-12T05:31:25;21.60;99.90
28729;DHT22;15894;50.452;30.446;2022-07-12T05:33:52;21.70;99.90
28729;DHT22;15894;50.452;30.446;2022-07-12T05:36:18;21.70;99.90
28729;DHT22;15894;50.452;30.446;2022-07-12T05:38:44;21.70;99.90
28729;DHT22;15894;50.452;30.446;2022-07-12T05:41:09;21.80;99.90
28729;DHT22;15894;50.452;30.446;2022-07-12T05:43:35;21.80;99.90
28729;DHT22;15894;50.452;30.446;2022-07-12T05:46:01;22.00;99.90
28729;DHT22;15894;50.452;30.446;2022-07-12T05:48:26;22.00;99.90
28729;DHT22;15894;50.452;30.446;2022-07-12T05:50:52;22.20;99.90
28729;DHT22;15894;50.452;30.446;2022-07-12T05:53:18;22.10;99.90
28729;DHT22;15894;50.452;30.446;2022-07-12T05:55:50;22.10;99.90
28729;DHT22;15894;50.452;30.446;2022-07-12T05:58:17;22.10;99.90
28729;DHT22;15894;50.452;30.446;2022-07-12T06:00:44;21.90;99.90
28729;DHT22;15894;50.452;30.446;2022-07-12T06:03:10;22.00;99.90
28729;DHT22;15894;50.452;30.446;2022-07-12T06:05:35;22.50;99.90
28729;DHT22;15894;50.452;30.446;2022-07-12T06:08:01;22.40;99.90
28729;DHT22;15894;50.452;30.446;2022-07-12T06:10:27;21.80;99.90
28729;DHT22;15894;50.452;30.446;2022-07-12T06:12:53;21.70;99.90
28729;DHT22;15894;50.452;30.446;2022-07-12T06:15:18;21.30;99.90
28729;DHT22;15894;50.452;30.446;2022-07-12T06:17:44;21.60;99.90
28729;DHT22;15894;50.452;30.446;2022-07-12T06:20:11;21.90;99.90
28729;DHT22;15894;50.452;30.446;2022-07-12T06:22:36;22.00;99.90
28729;DHT22;15894;50.452;30.446;2022-07-12T06:25:02;22.20;99.90
28729;DHT22;15894;50.452;30.446;2022-07-12T06:27:28;22.50;99.90
28729;DHT22;15894;50.452;30.446;2022-07-12T06:29:54;22.80;99.90
28729;DHT22;15894;50.452;30.446;2022-07-12T06:32:19;22.80;99.90
28729;DHT22;15894;50.452;30.446;2022-07-12T06:34:45;22.70;99.90
28729;DHT22;15894;50.452;30.446;2022-07-12T06:37:10;22.80;99.90
28729;DHT22;15894;50.452;30.446;2022-07-12T06:39:38;22.90;99.90
28729;DHT22;15894;50.452;30.446;2022-07-12T06:42:04;22.70;99.90
28729;DHT22;15894;50.452;30.446;2022-07-12T06:44:30;22.60;99.90
28729;DHT22;15894;50.452;30.446;2022-07-12T06:46:56;22.60;99.90
28729;DHT22;15894;50.452;30.446;2022-07-12T06:49:22;22.50;99.90
28729;DHT22;15894;50.452;30.446;2022-07-12T06:51:48;22.30;99.90
28729;DHT22;15894;50.452;30.446;2022-07-12T06:54:14;21.90;99.90
28729;DHT22;15894;50.452;30.446;2022-07-12T06:56:39;21.90;99.90
28729;DHT22;15894;50.452;30.446;2022-07-12T06:59:05;22.00;99.90
28729;DHT22;15894;50.452;30.446;2022-07-12T07:01:30;21.80;99.90
28729;DHT22;15894;50.452;30.446;2022-07-12T07:03:56;21.80;99.90
28729;DHT22;15894;50.452;30.446;2022-07-12T07:06:21;21.90;99.90
28729;DHT22;15894;50.452;30.446;2022-07-12T07:08:47;21.80;99.90
28729;DHT22;15894;50.452;30.446;2022-07-12T07:11:13;21.70;99.90
28729;DHT22;15894;50.452;30.446;2022-07-12T07:13:38;21.50;99.90
28729;DHT22;15894;50.452;30.446;2022-07-12T07:16:05;21.20;99.90
28729;DHT22;15894;50.452;30.446;2022-07-12T07:18:31;21.50;99.90
28729;DHT22;15894;50.452;30.446;2022-07-12T07:20:56;21.50;99.90
28729;DHT22;15894;50.452;30.446;2022-07-12T07:23:22;21.60;99.90
28729;DHT22;15894;50.452;30.446;2022-07-12T07:25:47;21.40;99.90
28729;DHT22;15894;50.452;30.446;2022-07-12T07:28:13;21.30;99.90
28729;DHT22;15894;50.452;30.446;2022-07-12T07:30:39;21.30;99.90
28729;DHT22;15894;50.452;30.446;2022-07-12T07:33:24;21.30;99.90
28729;DHT22;15894;50.452;30.446;2022-07-12T07:35:50;20.90;99.90
28729;DHT22;15894;50.452;30.446;2022-07-12T07:38:17;20.90;99.90
28729;DHT22;15894;50.452;30.446;2022-07-12T07:40:43;20.90;99.90
28729;DHT22;15894;50.452;30.446;2022-07-12T07:43:09;21.00;99.90
28729;DHT22;15894;50.452;30.446;2022-07-12T07:45:35;21.20;99.90
28729;DHT22;15894;50.452;30.446;2022-07-12T07:48:01;21.30;99.90
28729;DHT22;15894;50.452;30.446;2022-07-12T07:50:27;21.20;99.90
28729;DHT22;15894;50.452;30.446;2022-07-12T07:52:53;21.20;99.90
28729;DHT22;15894;50.452;30.446;2022-07-12T07:55:19;21.20;99.90
28729;DHT22;15894;50.452;30.446;2022-07-12T07:57:44;21.20;99.90
28729;DHT22;15894;50.452;30.446;2022-07-12T08:00:12;21.00;99.90
28729;DHT22;15894;50.452;30.446;2022-07-12T08:02:38;21.10;99.90
28729;DHT22;15894;50.452;30.446;2022-07-12T08:05:04;21.10;99.90
28729;DHT22;15894;50.452;30.446;2022-07-12T08:07:29;21.00;99.90
28729;DHT22;15894;50.452;30.446;2022-07-12T08:09:55;21.00;99.90
28729;DHT22;15894;50.452;30.446;2022-07-12T08:12:21;21.00;99.90
28729;DHT22;15894;50.452;30.446;2022-07-12T08:14:46;21.00;99.90
28729;DHT22;15894;50.452;30.446;2022-07-12T08:17:12;21.20;99.90
28729;DHT22;15894;50.452;30.446;2022-07-12T08:19:37;21.40;99.90
28729;DHT22;15894;50.452;30.446;2022-07-12T08:22:03;21.40;99.90
28729;DHT22;15894;50.452;30.446;2022-07-12T08:24:29;21.60;99.90
28729;DHT22;15894;50.452;30.446;2022-07-12T08:26:55;21.60;99.90
28729;DHT22;15894;50.452;30.446;2022-07-12T08:29:20;21.70;99.90
28729;DHT22;15894;50.452;30.446;2022-07-12T08:31:46;21.70;99.90
28729;DHT22;15894;50.452;30.446;2022-07-12T08:34:12;21.80;99.90
28729;DHT22;15894;50.452;30.446;2022-07-12T08:36:38;21.80;99.90
28729;DHT22;15894;50.452;30.446;2022-07-12T08:39:03;21.80;99.90
28729;DHT22;15894;50.452;30.446;2022-07-12T08:41:29;21.70;99.90
28729;DHT22;15894;50.452;30.446;2022-07-12T08:43:55;21.60;99.90
28729;DHT22;15894;50.452;30.446;2022-07-12T08:46:21;21.40;99.90
28729;DHT22;15894;50.452;30.446;2022-07-12T08:48:46;21.20;99.90
28729;DHT22;15894;50.452;30.446;2022-07-12T08:51:14;21.30;99.90
28729;DHT22;15894;50.452;30.446;2022-07-12T08:53:43;21.40;99.90
28729;DHT22;15894;50.452;30.446;2022-07-12T08:59:16;21.50;99.90
28729;DHT22;15894;50.452;30.446;2022-07-12T09:04:23;21.60;99.90
28729;DHT22;15894;50.452;30.446;2022-07-12T09:06:50;21.60;99.90
28729;DHT22;15894;50.452;30.446;2022-07-12T09:09:27;21.50;99.90
28729;DHT22;15894;50.452;30.446;2022-07-12T09:11:53;21.50;99.90
28729;DHT22;15894;50.452;30.446;2022-07-12T09:14:19;21.50;99.90
28729;DHT22;15894;50.452;30.446;2022-07-12T09:17:02;21.20;99.90
28729;DHT22;15894;50.452;30.446;2022-07-12T09:19:28;21.00;99.90
28729;DHT22;15894;50.452;30.446;2022-07-12T09:21:55;21.10;99.90
28729;DHT22;15894;50.452;30.446;2022-07-12T09:24:24;21.30;99.90
28729;DHT22;15894;50.452;30.446;2022-07-12T09:27:10;21.40;99.90
28729;DHT22;15894;50.452;30.446;2022-07-12T09:29:56;21.40;99.90
28729;DHT22;15894;50.452;30.446;2022-07-12T09:32:22;21.60;99.90
28729;DHT22;15894;50.452;30.446;2022-07-12T09:35:06;21.30;99.90
28729;DHT22;15894;50.452;30.446;2022-07-12T09:37:50;21.50;99.90
28729;DHT22;15894;50.452;30.446;2022-07-12T09:40:15;21.20;99.90
28729;DHT22;15894;50.452;30.446;2022-07-12T09:42:42;21.10;99.90
28729;DHT22;15894;50.452;30.446;2022-07-12T09:45:08;21.20;99.90
28729;DHT22;15894;50.452;30.446;2022-07-12T09:47:35;21.30;99.90
28729;DHT22;15894;50.452;30.446;2022-07-12T09:50:01;21.40;99.90
28729;DHT22;15894;50.452;30.446;2022-07-12T09:52:28;21.50;99.90
28729;DHT22;15894;50.452;30.446;2022-07-12T09:54:55;21.60;99.90
28729;DHT22;15894;50.452;30.446;2022-07-12T09:57:26;21.60;99.90
28729;DHT22;15894;50.452;30.446;2022-07-12T09:59:53;21.40;99.90
28729;DHT22;15894;50.452;30.446;2022-07-12T10:02:19;21.60;99.90
28729;DHT22;15894;50.452;30.446;2022-07-12T10:04:46;21.60;99.90
28729;DHT22;15894;50.452;30.446;2022-07-12T10:07:12;21.80;99.90
28729;DHT22;15894;50.452;30.446;2022-07-12T10:09:40;22.00;99.90
28729;DHT22;15894;50.452;30.446;2022-07-12T10:12:08;21.90;99.90
28729;DHT22;15894;50.452;30.446;2022-07-12T10:14:34;21.80;99.90
28729;DHT22;15894;50.452;30.446;2022-07-12T10:17:01;21.80;99.90
28729;DHT22;15894;50.452;30.446;2022-07-12T10:19:32;22.00;99.90
28729;DHT22;15894;50.452;30.446;2022-07-12T10:22:02;22.10;99.90
28729;DHT22;15894;50.452;30.446;2022-07-12T10:29:42;22.10;99.90
28729;DHT22;15894;50.452;30.446;2022-07-12T10:32:24;22.00;99.90
28729;DHT22;15894;50.452;30.446;2022-07-12T10:37:39;22.20;99.90
28729;DHT22;15894;50.452;30.446;2022-07-12T10:40:19;22.20;99.90
28729;DHT22;15894;50.452;30.446;2022-07-12T10:48:03;21.90;99.90
28729;DHT22;15894;50.452;30.446;2022-07-12T10:53:34;22.00;99.90
28729;DHT22;15894;50.452;30.446;2022-07-12T10:56:07;22.00;99.90
28729;DHT22;15894;50.452;30.446;2022-07-12T10:58:38;21.60;99.90
28729;DHT22;15894;50.452;30.446;2022-07-12T11:01:07;21.40;99.90
28729;DHT22;15894;50.452;30.446;2022-07-12T11:03:47;21.50;99.90
28729;DHT22;15894;50.452;30.446;2022-07-12T11:06:15;21.50;99.90
28729;DHT22;15894;50.452;30.446;2022-07-12T11:08:51;21.10;99.90
28729;DHT22;15894;50.452;30.446;2022-07-12T11:11:18;21.40;99.90
28729;DHT22;15894;50.452;30.446;2022-07-12T11:13:44;21.70;99.90
28729;DHT22;15894;50.452;30.446;2022-07-12T11:16:10;21.60;99.90
28729;DHT22;15894;50.452;30.446;2022-07-12T11:18:37;21.30;99.90
28729;DHT22;15894;50.452;30.446;2022-07-12T11:21:03;21.10;99.90
28729;DHT22;15894;50.452;30.446;2022-07-12T11:23:30;20.90;99.90
28729;DHT22;15894;50.452;30.446;2022-07-12T11:26:03;21.00;99.90
28729;DHT22;15894;50.452;30.446;2022-07-12T11:28:30;20.60;99.90
28729;DHT22;15894;50.452;30.446;2022-07-12T11:33:33;20.60;99.90
28729;DHT22;15894;50.452;30.446;2022-07-12T11:36:02;20.50;99.90
28729;DHT22;15894;50.452;30.446;2022-07-12T11:38:28;20.40;99.90
28729;DHT22;15894;50.452;30.446;2022-07-12T11:41:04;20.50;99.90
28729;DHT22;15894;50.452;30.446;2022-07-12T11:43:30;19.50;99.90
28729;DHT22;15894;50.452;30.446;2022-07-12T11:45:57;18.30;99.90
28729;DHT22;15894;50.452;30.446;2022-07-12T11:48:23;17.50;99.90
28729;DHT22;15894;50.452;30.446;2022-07-12T11:50:53;17.00;99.90
28729;DHT22;15894;50.452;30.446;2022-07-12T11:55:47;16.30;99.90
28729;DHT22;15894;50.452;30.446;2022-07-12T11:58:14;16.20;99.90
28729;DHT22;15894;50.452;30.446;2022-07-12T12:00:40;16.30;99.90
28729;DHT22;15894;50.452;30.446;2022-07-12T12:03:06;16.50;99.90
28729;DHT22;15894;50.452;30.446;2022-07-12T12:05:32;16.70;99.90
28729;DHT22;15894;50.452;30.446;2022-07-12T12:07:58;16.80;99.90
28729;DHT22;15894;50.452;30.446;2022-07-12T12:10:24;16.70;99.90
28729;DHT22;15894;50.452;30.446;2022-07-12T12:12:54;16.60;99.90
28729;DHT22;15894;50.452;30.446;2022-07-12T12:15:28;16.70;99.90
28729;DHT22;15894;50.452;30.446;2022-07-12T12:17:59;16.60;99.90
28729;DHT22;15894;50.452;30.446;2022-07-12T12:20:27;16.50;99.90
28729;DHT22;15894;50.452;30.446;2022-07-12T12:22:54;16.30;99.90
28729;DHT22;15894;50.452;30.446;2022-07-12T12:25:21;16.30;99.90
28729;DHT22;15894;50.452;30.446;2022-07-12T12:27:55;16.20;99.90
28729;DHT22;15894;50.452;30.446;2022-07-12T12:30:21;16.10;99.90
28729;DHT22;15894;50.452;30.446;2022-07-12T12:35:18;15.90;99.90
28729;DHT22;15894;50.452;30.446;2022-07-12T12:37:57;16.00;99.90
28729;DHT22;15894;50.452;30.446;2022-07-12T12:40:31;16.10;99.90
28729;DHT22;15894;50.452;30.446;2022-07-12T12:43:08;16.10;99.90
28729;DHT22;15894;50.452;30.446;2022-07-12T12:45:34;15.80;99.90
28729;DHT22;15894;50.452;30.446;2022-07-12T12:48:02;15.70;99.90
28729;DHT22;15894;50.452;30.446;2022-07-12T12:50:41;15.50;99.90
28729;DHT22;15894;50.452;30.446;2022-07-12T12:53:18;15.60;99.90
28729;DHT22;15894;50.452;30.446;2022-07-12T12:55:45;15.60;99.90
28729;DHT22;15894;50.452;30.446;2022-07-12T12:58:12;15.50;99.90
28729;DHT22;15894;50.452;30.446;2022-07-12T13:00:40;15.70;99.90
28729;DHT22;15894;50.452;30.446;2022-07-12T13:03:12;15.70;99.90
28729;DHT22;15894;50.452;30.446;2022-07-12T13:05:38;15.80;99.90
28729;DHT22;15894;50.452;30.446;2022-07-12T13:08:06;15.90;99.90
28729;DHT22;15894;50.452;30.446;2022-07-12T13:10:32;16.00;99.90
28729;DHT22;15894;50.452;30.446;2022-07-12T13:12:58;16.10;99.90
28729;DHT22;15894;50.452;30.446;2022-07-12T13:15:25;16.40;99.90
28729;DHT22;15894;50.452;30.446;2022-07-12T13:17:51;16.50;99.90
28729;DHT22;15894;50.452;30.446;2022-07-12T13:20:17;16.70;99.90
28729;DHT22;15894;50.452;30.446;2022-07-12T13:22:43;16.60;99.90
28729;DHT22;15894;50.452;30.446;2022-07-12T13:25:11;16.70;99.90
28729;DHT22;15894;50.452;30.446;2022-07-12T13:27:38;16.70;99.90
28729;DHT22;15894;50.452;30.446;2022-07-12T13:30:04;16.90;99.90
28729;DHT22;15894;50.452;30.446;2022-07-12T13:32:32;17.10;99.90
28729;DHT22;15894;50.452;30.446;2022-07-12T13:34:57;17.40;99.90
28729;DHT22;15894;50.452;30.446;2022-07-12T13:37:25;17.60;99.90
28729;DHT22;15894;50.452;30.446;2022-07-12T13:39:50;17.80;99.90
28729;DHT22;15894;50.452;30.446;2022-07-12T13:42:35;18.00;99.90
28729;DHT22;15894;50.452;30.446;2022-07-12T13:45:00;18.20;99.90
28729;DHT22;15894;50.452;30.446;2022-07-12T13:47:26;18.20;99.90
28729;DHT22;15894;50.452;30.446;2022-07-12T13:49:52;18.10;99.90
28729;DHT22;15894;50.452;30.446;2022-07-12T13:52:17;18.10;99.90
28729;DHT22;15894;50.452;30.446;2022-07-12T13:54:44;18.00;99.90
28729;DHT22;15894;50.452;30.446;2022-07-12T13:57:11;18.20;99.90
28729;DHT22;15894;50.452;30.446;2022-07-12T13:59:37;18.20;99.90
28729;DHT22;15894;50.452;30.446;2022-07-12T14:02:04;18.20;99.90
28729;DHT22;15894;50.452;30.446;2022-07-12T14:04:29;18.30;99.90
28729;DHT22;15894;50.452;30.446;2022-07-12T14:06:56;18.30;99.90
28729;DHT22;15894;50.452;30.446;2022-07-12T14:09:22;18.50;99.90
28729;DHT22;15894;50.452;30.446;2022-07-12T14:11:48;18.40;99.90
28729;DHT22;15894;50.452;30.446;2022-07-12T14:14:14;18.40;99.90
28729;DHT22;15894;50.452;30.446;2022-07-12T14:16:40;18.40;99.90
28729;DHT22;15894;50.452;30.446;2022-07-12T14:19:05;18.40;99.90
28729;DHT22;15894;50.452;30.446;2022-07-12T14:21:31;18.60;99.90
28729;DHT22;15894;50.452;30.446;2022-07-12T14:23:57;18.70;99.90
28729;DHT22;15894;50.452;30.446;2022-07-12T14:26:27;18.70;99.90
28729;DHT22;15894;50.452;30.446;2022-07-12T14:28:52;18.80;99.90
28729;DHT22;15894;50.452;30.446;2022-07-12T14:31:18;18.80;99.90
28729;DHT22;15894;50.452;30.446;2022-07-12T14:33:44;18.70;99.90
28729;DHT22;15894;50.452;30.446;2022-07-12T14:36:10;18.70;99.90
28729;DHT22;15894;50.452;30.446;2022-07-12T14:38:35;18.80;99.90
28729;DHT22;15894;50.452;30.446;2022-07-12T14:41:01;18.80;99.90
28729;DHT22;15894;50.452;30.446;2022-07-12T14:43:27;18.90;99.90
28729;DHT22;15894;50.452;30.446;2022-07-12T14:45:52;19.00;99.90
28729;DHT22;15894;50.452;30.446;2022-07-12T14:48:18;19.00;99.90
28729;DHT22;15894;50.452;30.446;2022-07-12T14:50:43;19.20;99.90
28729;DHT22;15894;50.452;30.446;2022-07-12T14:53:09;19.30;99.90
28729;DHT22;15894;50.452;30.446;2022-07-12T14:55:36;19.40;99.90
28729;DHT22;15894;50.452;30.446;2022-07-12T14:58:02;19.20;99.90
28729;DHT22;15894;50.452;30.446;2022-07-12T15:00:28;19.00;99.90
28729;DHT22;15894;50.452;30.446;2022-07-12T15:02:54;19.10;99.90
28729;DHT22;15894;50.452;30.446;2022-07-12T15:05:26;19.00;99.90
28729;DHT22;15894;50.452;30.446;2022-07-12T15:07:52;19.00;99.90
28729;DHT22;15894;50.452;30.446;2022-07-12T15:10:17;19.20;99.90
28729;DHT22;15894;50.452;30.446;2022-07-12T15:12:43;19.20;99.90
28729;DHT22;15894;50.452;30.446;2022-07-12T15:15:09;19.30;99.90
28729;DHT22;15894;50.452;30.446;2022-07-12T15:17:34;19.30;99.90
28729;DHT22;15894;50.452;30.446;2022-07-12T15:20:01;19.40;99.90
28729;DHT22;15894;50.452;30.446;2022-07-12T15:22:26;19.40;99.90
28729;DHT22;15894;50.452;30.446;2022-07-12T15:24:52;19.20;99.90
28729;DHT22;15894;50.452;30.446;2022-07-12T15:27:17;19.10;99.90
28729;DHT22;15894;50.452;30.446;2022-07-12T15:29:43;19.00;99.90
28729;DHT22;15894;50.452;30.446;2022-07-12T15:32:10;19.00;99.90
28729;DHT22;15894;50.452;30.446;2022-07-12T15:34:37;19.00;99.90
28729;DHT22;15894;50.452;30.446;2022-07-12T15:37:03;18.90;99.90
28729;DHT22;15894;50.452;30.446;2022-07-12T15:39:29;18.90;99.90
28729;DHT22;15894;50.452;30.446;2022-07-12T15:41:54;18.80;99.90
28729;DHT22;15894;50.452;30.446;2022-07-12T15:44:20;18.70;99.90